Terminal Aerodrome Forecast
Issued by NWS

Current Version | Previous Version | Text Only | Print | Product List | Glossary Off
Versions: 1 2 3 4 5 6 7 8 9 10 11 12 13 14 15 16 17

000
FTUS41 KPBZ 222332
TAFHLG
TAF
KHLG 222332Z 2300/2324 23006KT P6SM OVC023
     FM230200 20003KT P6SM OVC012
     FM230400 20004KT 4SM BR OVC008
     FM231700 23007KT P6SM VCSH BKN012
     FM232000 24008KT P6SM BKN030=

USA.gov is the U.S. government's official web portal to all federal, state and local government web resources and services.